createdAt,value
2022-08-05T00:01:35.938Z,67.28
2022-08-05T00:04:17.890Z,67.38
2022-08-05T00:06:47.244Z,67.45
2022-08-05T00:09:20.318Z,67.59
2022-08-05T00:11:55.638Z,67.52
2022-08-05T00:14:27.594Z,67.67
2022-08-05T00:16:57.913Z,67.68
2022-08-05T00:19:33.322Z,67.60
2022-08-05T00:22:13.967Z,67.77
2022-08-05T00:24:45.869Z,68.00
2022-08-05T00:27:35.646Z,68.11
2022-08-05T00:30:05.619Z,68.16
2022-08-05T00:32:39.469Z,68.29
2022-08-05T00:35:09.150Z,68.22
2022-08-05T00:37:53.316Z,68.38
2022-08-05T00:40:27.390Z,68.48
2022-08-05T00:42:58.573Z,68.58
2022-08-05T00:45:38.065Z,68.59
2022-08-05T00:48:09.312Z,68.60
2022-08-05T00:50:44.381Z,68.78
2022-08-05T00:54:00.867Z,68.86
2022-08-05T00:56:07.835Z,68.97
2022-08-05T00:58:36.933Z,68.98
2022-08-05T01:01:08.651Z,69.31
2022-08-05T01:03:39.262Z,69.33
2022-08-05T01:06:14.046Z,69.32
2022-08-05T01:08:44.749Z,69.52
2022-08-05T01:11:37.794Z,69.38
2022-08-05T01:14:15.412Z,69.59
2022-08-05T01:16:55.337Z,69.65
2022-08-05T01:19:36.565Z,69.72
2022-08-05T01:22:27.707Z,69.84
2022-08-05T01:25:17.286Z,69.85
2022-08-05T01:28:18.060Z,70.10
2022-08-05T01:30:55.311Z,70.25
2022-08-05T01:33:26.423Z,70.27
2022-08-05T01:35:57.605Z,70.25
2022-08-05T01:38:29.191Z,70.33
2022-08-05T01:41:00.098Z,70.39
2022-08-05T01:43:32.259Z,70.46
2022-08-05T01:46:07.370Z,70.61
2022-08-05T01:48:49.535Z,70.57
2022-08-05T01:51:19.311Z,70.76
2022-08-05T01:53:56.974Z,70.74
2022-08-05T01:58:13.860Z,70.96
2022-08-05T01:59:23.191Z,70.96
2022-08-05T02:01:55.504Z,70.95
2022-08-05T02:04:26.649Z,71.24
2022-08-05T02:06:57.859Z,71.15
2022-08-05T02:09:26.832Z,71.34
2022-08-05T02:12:06.717Z,71.45
2022-08-05T02:14:52.786Z,71.50
2022-08-05T02:18:28.357Z,71.48
2022-08-05T02:20:30.752Z,71.52
2022-08-05T02:23:11.133Z,71.64
2022-08-05T02:25:49.111Z,71.66
2022-08-05T02:28:31.247Z,71.73
2022-08-05T02:31:14.857Z,71.97
2022-08-05T02:34:12.059Z,71.87
2022-08-05T02:36:44.117Z,71.95
2022-08-05T02:39:13.443Z,72.08
2022-08-05T02:42:00.930Z,72.21
2022-08-05T02:44:32.244Z,72.31
2022-08-05T02:47:02.209Z,72.27
2022-08-05T02:49:37.750Z,72.30
2022-08-05T02:52:29.798Z,72.34
2022-08-05T02:55:05.431Z,72.44
2022-08-05T02:58:09.833Z,72.44
2022-08-05T03:00:27.736Z,72.56
2022-08-05T03:02:57.663Z,72.58
2022-08-05T03:06:56.095Z,72.53
2022-08-05T03:08:14.935Z,72.63
2022-08-05T03:11:01.281Z,72.64
2022-08-05T03:13:52.094Z,72.69
2022-08-05T03:16:21.988Z,72.88
2022-08-05T03:18:51.377Z,72.90
2022-08-05T03:21:19.934Z,72.95
2022-08-05T03:23:50.353Z,73.03
2022-08-05T03:26:31.122Z,72.93
2022-08-05T03:29:00.967Z,72.95
2022-08-05T03:31:55.949Z,73.01
2022-08-05T03:34:18.152Z,72.99
2022-08-05T03:36:46.334Z,73.22
2022-08-05T03:39:20.201Z,73.19
2022-08-05T03:41:56.536Z,73.03
2022-08-05T03:44:25.342Z,73.22
2022-08-05T03:46:57.250Z,73.30
2022-08-05T03:49:30.881Z,73.39
2022-08-05T03:52:49.384Z,73.27
2022-08-05T03:56:05.357Z,73.39
2022-08-05T03:58:11.252Z,73.34
2022-08-05T04:00:41.979Z,73.31
2022-08-05T04:03:15.036Z,73.39
2022-08-05T04:05:59.269Z,73.35
2022-08-05T04:08:36.513Z,73.34
2022-08-05T04:11:08.581Z,73.43
2022-08-05T04:13:50.647Z,73.51
2022-08-05T04:16:24.959Z,73.50
2022-08-05T04:19:00.623Z,73.44
2022-08-05T04:22:09.624Z,73.40
2022-08-05T04:24:19.204Z,73.28
2022-08-05T04:26:51.056Z,73.29
2022-08-05T04:29:19.671Z,73.36
2022-08-05T04:31:48.333Z,73.29
2022-08-05T04:34:32.722Z,73.17
2022-08-05T04:37:03.562Z,72.96
2022-08-05T04:39:32.422Z,73.16
2022-08-05T04:42:04.050Z,73.03
2022-08-05T04:44:32.246Z,73.09
2022-08-05T04:47:09.400Z,73.04
2022-08-05T04:50:02.133Z,72.68
2022-08-05T04:52:29.245Z,72.70
2022-08-05T04:55:13.803Z,72.48
2022-08-05T04:57:47.996Z,72.58
2022-08-05T05:00:23.235Z,72.35
2022-08-05T05:02:54.930Z,72.17
2022-08-05T05:05:28.879Z,72.14
2022-08-05T05:08:05.557Z,71.85
2022-08-05T05:10:47.232Z,72.01
2022-08-05T05:13:24.059Z,71.58
2022-08-05T05:15:56.796Z,71.36
2022-08-05T05:18:33.416Z,71.27
2022-08-05T05:21:06.570Z,70.97
2022-08-05T05:24:01.923Z,70.69
2022-08-05T05:26:28.778Z,70.49
2022-08-05T05:29:14.388Z,70.41
2022-08-05T05:31:43.316Z,70.16
2022-08-05T05:34:15.442Z,69.70
2022-08-05T05:36:43.895Z,69.54
2022-08-05T05:39:15.032Z,68.87
2022-08-05T05:41:54.260Z,68.44
2022-08-05T05:44:36.766Z,68.28
2022-08-05T05:47:21.255Z,67.97
2022-08-05T05:49:56.971Z,67.68
2022-08-05T05:52:34.537Z,67.28
2022-08-05T05:55:13.400Z,66.82
2022-08-05T05:57:52.409Z,66.24
2022-08-05T06:00:27.787Z,65.82
2022-08-05T06:03:01.796Z,65.86
2022-08-05T06:05:29.850Z,65.44
2022-08-05T06:08:01.902Z,65.13
2022-08-05T06:10:36.285Z,64.98
2022-08-05T06:13:05.401Z,64.73
2022-08-05T06:16:28.159Z,64.51
2022-08-05T06:18:31.060Z,64.50
2022-08-05T06:21:00.274Z,63.89
2022-08-05T06:23:43.669Z,63.63
2022-08-05T06:26:21.439Z,62.99
2022-08-05T06:29:00.238Z,62.54
2022-08-05T06:31:32.163Z,62.55
2022-08-05T06:34:07.550Z,62.02
2022-08-05T06:36:57.349Z,61.69
2022-08-05T06:39:27.219Z,61.05
2022-08-05T06:42:04.029Z,61.19
2022-08-05T06:44:32.382Z,61.12
2022-08-05T06:47:02.252Z,60.66
2022-08-05T06:49:59.885Z,60.29
2022-08-05T06:52:37.152Z,59.69
2022-08-05T06:55:07.595Z,59.78
2022-08-05T06:57:57.144Z,60.78
2022-08-05T07:00:25.550Z,59.69
2022-08-05T07:02:54.218Z,58.95
2022-08-05T07:05:31.791Z,58.61
2022-08-05T07:08:10.678Z,58.93
2022-08-05T07:10:52.729Z,58.05
2022-08-05T07:13:57.947Z,58.10
2022-08-05T07:18:00.690Z,58.18
2022-08-05T07:22:29.120Z,58.18
2022-08-05T07:25:23.686Z,58.26
2022-08-05T07:27:57.585Z,57.74
2022-08-05T07:30:39.194Z,57.82
2022-08-05T07:33:16.672Z,56.90
2022-08-05T07:36:05.059Z,56.24
2022-08-05T07:38:43.684Z,55.88
2022-08-05T07:42:13.277Z,56.34
2022-08-05T07:44:14.245Z,56.19
2022-08-05T07:46:49.601Z,54.77
2022-08-05T07:49:20.820Z,54.21
2022-08-05T07:51:54.182Z,54.14
2022-08-05T07:54:30.980Z,53.88
2022-08-05T07:57:41.997Z,53.88
2022-08-05T07:59:50.776Z,54.28
2022-08-05T08:02:26.732Z,54.07
2022-08-05T08:05:00.099Z,54.49
2022-08-05T08:07:39.559Z,54.32
2022-08-05T08:10:20.733Z,53.99
2022-08-05T08:12:50.152Z,54.40
2022-08-05T08:15:28.075Z,54.05
2022-08-05T08:18:13.924Z,53.35
2022-08-05T08:21:00.236Z,53.49
2022-08-05T08:24:02.127Z,53.41
2022-08-05T08:26:17.954Z,52.08
2022-08-05T08:29:21.666Z,52.07
2022-08-05T08:31:50.232Z,50.86
2022-08-05T08:34:30.899Z,50.01
2022-08-05T08:37:03.285Z,50.00
2022-08-05T08:39:37.496Z,50.55
2022-08-05T08:42:27.566Z,50.29
2022-08-05T08:45:22.914Z,50.00
2022-08-05T08:48:10.711Z,50.42
2022-08-05T08:51:03.793Z,49.82
2022-08-05T08:53:35.677Z,49.63
2022-08-05T08:56:06.301Z,49.68
2022-08-05T08:58:43.700Z,48.98
2022-08-05T09:01:18.915Z,49.09
2022-08-05T09:04:02.537Z,49.79
2022-08-05T09:06:36.212Z,49.95
2022-08-05T09:09:04.769Z,49.60
2022-08-05T09:11:52.980Z,49.33
2022-08-05T09:14:56.727Z,48.20
2022-08-05T09:17:40.579Z,46.98
2022-08-05T09:20:05.858Z,46.91
2022-08-05T09:23:05.431Z,47.10
2022-08-05T09:26:01.756Z,46.53
2022-08-05T09:28:31.866Z,45.73
2022-08-05T09:32:39.009Z,46.78
2022-08-05T09:34:00.304Z,46.42
2022-08-05T09:36:56.381Z,46.23
2022-08-05T09:39:56.159Z,44.68
2022-08-05T09:42:28.156Z,43.26
2022-08-05T09:45:17.605Z,43.11
2022-08-05T09:47:56.337Z,43.72
2022-08-05T09:50:38.679Z,43.04
2022-08-05T09:53:18.359Z,42.31
2022-08-05T09:55:56.369Z,43.33
2022-08-05T09:58:38.901Z,43.48
2022-08-05T10:01:14.601Z,43.94
2022-08-05T10:04:09.989Z,43.97
2022-08-05T10:06:54.633Z,43.69
2022-08-05T10:09:28.221Z,43.79
2022-08-05T10:12:30.969Z,44.43
2022-08-05T10:15:17.095Z,43.74
2022-08-05T10:18:17.309Z,43.63
2022-08-05T10:20:52.032Z,43.40
2022-08-05T10:23:55.664Z,43.43
2022-08-05T10:26:19.897Z,43.31
2022-08-05T10:29:00.158Z,43.61
2022-08-05T10:32:51.845Z,42.83
2022-08-05T10:34:16.981Z,43.30
2022-08-05T10:36:45.813Z,43.77
2022-08-05T10:39:25.106Z,43.46
2022-08-05T10:42:18.888Z,42.64
2022-08-05T10:45:01.432Z,43.26
2022-08-05T10:47:34.639Z,43.29
2022-08-05T10:50:32.965Z,43.46
2022-08-05T10:52:58.762Z,43.08
2022-08-05T10:55:27.821Z,42.84
2022-08-05T10:58:12.109Z,43.21
2022-08-05T11:00:55.101Z,42.92
2022-08-05T11:03:29.426Z,43.45
2022-08-05T11:06:30.797Z,43.28
2022-08-05T11:09:24.256Z,43.28
2022-08-05T11:12:24.915Z,43.34
2022-08-05T11:15:59.044Z,43.45
2022-08-05T11:18:26.115Z,43.66
2022-08-05T11:20:54.814Z,43.64
2022-08-05T11:24:04.856Z,43.60
2022-08-05T11:26:43.289Z,43.41
2022-08-05T11:29:35.677Z,43.03
2022-08-05T11:32:28.292Z,43.32
2022-08-05T11:34:57.700Z,43.27
2022-08-05T11:38:29.209Z,43.88
2022-08-05T11:41:14.460Z,43.63
2022-08-05T11:44:08.445Z,43.26
2022-08-05T11:47:11.000Z,43.63
2022-08-05T11:49:49.745Z,43.46
2022-08-05T11:52:29.634Z,43.71
2022-08-05T11:55:07.107Z,43.52
2022-08-05T11:58:08.260Z,43.82
2022-08-05T12:00:29.190Z,43.49
2022-08-05T12:03:15.047Z,42.67
2022-08-05T12:05:43.718Z,43.16
2022-08-05T12:08:17.970Z,43.77
2022-08-05T12:10:49.819Z,43.65
2022-08-05T12:13:27.877Z,42.99
2022-08-05T12:16:15.363Z,42.67
2022-08-05T12:18:49.449Z,43.21
2022-08-05T12:24:11.033Z,43.10
2022-08-05T12:26:44.283Z,42.86
2022-08-05T12:29:16.406Z,42.79
2022-08-05T12:31:57.172Z,42.57
2022-08-05T12:34:31.478Z,43.00
2022-08-05T12:37:07.614Z,41.83
2022-08-05T12:47:19.395Z,41.81
2022-08-05T12:50:07.826Z,42.43
2022-08-05T12:53:03.011Z,42.67
2022-08-05T12:59:27.488Z,42.47
2022-08-05T13:06:23.493Z,42.13
2022-08-05T13:08:52.897Z,42.26
2022-08-05T13:12:42.514Z,41.90
2022-08-05T13:16:28.650Z,42.19
2022-08-05T13:18:58.560Z,41.71
2022-08-05T13:21:28.342Z,41.72
2022-08-05T13:24:08.912Z,40.88
2022-08-05T13:26:37.196Z,41.21
2022-08-05T13:29:05.520Z,40.50
2022-08-05T13:32:04.315Z,40.56
2022-08-05T13:34:25.857Z,40.54
2022-08-05T13:36:54.718Z,39.31
2022-08-05T13:40:13.987Z,39.62
2022-08-05T13:42:14.703Z,39.88
2022-08-05T13:44:45.726Z,39.60
2022-08-05T13:47:34.568Z,40.52
2022-08-05T13:50:06.806Z,40.19
2022-08-05T13:52:38.326Z,40.53
2022-08-05T13:55:07.524Z,39.49
2022-08-05T13:57:49.016Z,39.88
2022-08-05T14:00:26.894Z,39.41
2022-08-05T14:02:57.298Z,38.95
2022-08-05T14:05:48.129Z,39.63
2022-08-05T14:08:20.077Z,39.09
2022-08-05T14:10:49.716Z,39.37
2022-08-05T14:13:17.736Z,39.54
2022-08-05T14:16:07.367Z,39.16
2022-08-05T14:18:37.952Z,39.24
2022-08-05T14:22:07.490Z,38.71
2022-08-05T14:23:54.346Z,38.51
2022-08-05T14:26:38.453Z,38.55
2022-08-05T14:29:10.024Z,38.90
2022-08-05T14:32:02.770Z,38.94
2022-08-05T14:34:36.090Z,39.64
2022-08-05T14:37:05.086Z,39.75
2022-08-05T14:39:49.637Z,39.40
2022-08-05T14:42:22.517Z,40.21
2022-08-05T14:44:53.540Z,40.12
2022-08-05T14:48:03.339Z,39.87
2022-08-05T14:50:18.082Z,39.71
2022-08-05T14:52:53.552Z,39.67
2022-08-05T14:55:38.777Z,39.65
2022-08-05T14:58:12.206Z,39.53
2022-08-05T15:00:58.577Z,39.82
2022-08-05T15:03:33.746Z,39.92
2022-08-05T15:06:15.082Z,40.04
2022-08-05T15:09:01.124Z,39.55
2022-08-05T15:11:51.956Z,39.51
2022-08-05T15:14:35.066Z,39.91
2022-08-05T15:17:44.554Z,39.53
2022-08-05T15:19:59.381Z,39.79
2022-08-05T15:22:28.182Z,40.14
2022-08-05T15:24:59.883Z,39.79
2022-08-05T15:27:32.284Z,39.70
2022-08-05T15:30:04.924Z,39.91
2022-08-05T15:32:33.092Z,39.70
2022-08-05T15:35:09.876Z,39.09
2022-08-05T15:38:32.613Z,39.37
2022-08-05T15:40:58.187Z,39.23
2022-08-05T15:43:22.009Z,39.29
2022-08-05T15:46:00.050Z,39.11
2022-08-05T15:48:30.215Z,39.35
2022-08-05T15:51:03.626Z,39.69
2022-08-05T15:53:38.407Z,39.88
2022-08-05T15:56:20.260Z,39.80
2022-08-05T15:58:49.024Z,39.39
2022-08-05T16:01:20.177Z,39.37
2022-08-05T16:04:00.104Z,38.90
2022-08-05T16:06:28.082Z,39.37
2022-08-05T16:08:55.986Z,39.89
2022-08-05T16:11:42.938Z,40.11
2022-08-05T16:14:17.129Z,39.96
2022-08-05T16:16:47.038Z,39.78
2022-08-05T16:19:25.243Z,40.06
2022-08-05T16:22:04.603Z,39.78
2022-08-05T16:24:40.260Z,39.87
2022-08-05T16:27:16.421Z,39.76
2022-08-05T16:29:50.274Z,39.81
2022-08-05T16:32:23.654Z,39.82
2022-08-05T16:34:59.031Z,40.21
2022-08-05T16:38:16.147Z,40.14
2022-08-05T16:40:28.549Z,40.32
2022-08-05T16:42:57.378Z,40.29
2022-08-05T16:46:04.729Z,40.10
2022-08-05T16:48:25.183Z,40.04
2022-08-05T16:50:54.832Z,40.57
2022-08-05T16:53:32.577Z,40.55
2022-08-05T16:56:11.846Z,40.38
2022-08-05T16:58:40.866Z,40.85
2022-08-05T17:01:10.604Z,40.84
2022-08-05T17:03:38.936Z,41.15
2022-08-05T17:06:07.544Z,41.97
2022-08-05T17:08:52.074Z,42.07
2022-08-05T17:11:25.363Z,43.04
2022-08-05T17:14:00.496Z,43.45
2022-08-05T17:16:36.526Z,44.44
2022-08-05T17:19:09.708Z,44.92
2022-08-05T17:21:39.525Z,45.20
2022-08-05T17:24:19.428Z,46.22
2022-08-05T17:26:58.452Z,47.09
2022-08-05T17:29:33.565Z,47.05
2022-08-05T17:32:17.268Z,47.77
2022-08-05T17:34:48.185Z,48.66
2022-08-05T17:37:40.463Z,49.44
2022-08-05T17:40:12.430Z,50.12
2022-08-05T17:42:50.911Z,50.25
2022-08-05T17:45:22.140Z,50.64
2022-08-05T17:47:55.812Z,50.90
2022-08-05T17:50:30.284Z,51.52
2022-08-05T17:53:04.536Z,51.94
2022-08-05T17:55:34.287Z,52.53
2022-08-05T17:58:13.067Z,52.86
2022-08-05T18:00:47.438Z,53.29
2022-08-05T18:03:58.376Z,53.43
2022-08-05T18:06:12.320Z,54.07
2022-08-05T18:08:52.182Z,54.55
2022-08-05T18:11:24.579Z,54.81
2022-08-05T18:13:59.797Z,55.38
2022-08-05T18:16:27.770Z,55.52
2022-08-05T18:18:57.378Z,56.15
2022-08-05T18:21:26.490Z,56.05
2022-08-05T18:24:14.477Z,56.25
2022-08-05T18:26:43.833Z,56.53
2022-08-05T18:29:11.863Z,56.70
2022-08-05T18:31:44.994Z,57.15
2022-08-05T18:34:14.971Z,57.42
2022-08-05T18:36:54.342Z,57.86
2022-08-05T18:40:31.814Z,58.58
2022-08-05T18:42:11.372Z,59.00
2022-08-05T18:44:49.166Z,58.97
2022-08-05T18:47:26.862Z,59.19
2022-08-05T18:50:15.579Z,59.58
2022-08-05T18:52:51.217Z,59.56
2022-08-05T18:55:22.387Z,59.67
2022-08-05T18:57:53.295Z,59.54
2022-08-05T19:00:28.774Z,59.77
2022-08-05T19:03:03.547Z,60.09
2022-08-05T19:06:11.128Z,60.42
2022-08-05T19:08:30.591Z,60.62
2022-08-05T19:11:02.728Z,60.78
2022-08-05T19:13:36.026Z,61.15
2022-08-05T19:16:22.027Z,61.19
2022-08-05T19:18:56.766Z,61.39
2022-08-05T19:21:27.589Z,61.43
2022-08-05T19:24:06.626Z,61.58
2022-08-05T19:26:43.774Z,61.64
2022-08-05T19:29:26.803Z,62.06
2022-08-05T19:32:08.774Z,62.52
2022-08-05T19:34:40.389Z,62.53
2022-08-05T19:37:10.140Z,62.58
2022-08-05T19:39:45.608Z,62.78
2022-08-05T19:42:35.545Z,62.97
2022-08-05T19:45:05.549Z,63.22
2022-08-05T19:47:37.994Z,63.35
2022-08-05T19:50:07.620Z,63.54
2022-08-05T19:52:39.301Z,63.09
2022-08-05T19:56:13.828Z,63.29
2022-08-05T19:58:10.379Z,63.73
2022-08-05T20:00:44.497Z,63.64
2022-08-05T20:03:12.494Z,63.76
2022-08-05T20:05:49.864Z,64.31
2022-08-05T20:08:20.287Z,64.34
2022-08-05T20:10:49.678Z,64.14
2022-08-05T20:13:30.272Z,64.76
2022-08-05T20:16:12.709Z,64.66
2022-08-05T20:18:55.375Z,64.75
2022-08-05T20:21:25.715Z,64.86
2022-08-05T20:23:53.663Z,64.59
2022-08-05T20:26:27.445Z,64.74
2022-08-05T20:28:57.513Z,64.66
2022-08-05T20:31:42.077Z,64.95
2022-08-05T20:34:17.615Z,65.04
2022-08-05T20:36:45.608Z,64.85
2022-08-05T20:39:16.794Z,64.98
2022-08-05T20:41:47.829Z,65.29
2022-08-05T20:44:30.456Z,65.11
2022-08-05T20:47:03.455Z,65.00
2022-08-05T20:49:33.174Z,65.07
2022-08-05T20:52:08.768Z,65.32
2022-08-05T20:54:55.241Z,65.45
2022-08-05T20:57:43.674Z,65.39
2022-08-05T21:00:40.459Z,65.50
2022-08-05T21:03:06.727Z,65.52
2022-08-05T21:05:53.908Z,65.68
2022-08-05T21:08:26.631Z,65.58
2022-08-05T21:11:15.097Z,65.71
2022-08-05T21:14:06.117Z,65.77
2022-08-05T21:16:35.713Z,65.87
2022-08-05T21:19:04.741Z,65.92
2022-08-05T21:21:44.522Z,65.89
2022-08-05T21:24:31.763Z,66.04
2022-08-05T21:27:00.148Z,66.14
2022-08-05T21:29:31.885Z,66.20
2022-08-05T21:32:06.984Z,66.37
2022-08-05T21:35:06.716Z,66.36
2022-08-05T21:37:41.454Z,66.48
2022-08-05T21:40:13.089Z,66.56
2022-08-05T21:42:45.639Z,66.79
2022-08-05T21:45:51.849Z,66.66
2022-08-05T21:48:25.935Z,66.73
2022-08-05T21:50:54.457Z,66.77
2022-08-05T21:53:27.503Z,66.55
2022-08-05T21:56:16.210Z,66.49
2022-08-05T21:58:56.905Z,66.75
2022-08-05T22:01:26.718Z,66.67
2022-08-05T22:04:13.318Z,66.68
2022-08-05T22:06:42.305Z,66.67
2022-08-05T22:09:21.460Z,66.73
2022-08-05T22:11:50.527Z,66.86
2022-08-05T22:14:35.696Z,66.79
2022-08-05T22:17:07.231Z,66.96
2022-08-05T22:20:01.495Z,66.97
2022-08-05T22:22:26.924Z,66.92
2022-08-05T22:25:21.645Z,66.65
2022-08-05T22:28:09.336Z,66.89
2022-08-05T22:30:44.031Z,66.83
2022-08-05T22:33:56.594Z,66.60
2022-08-05T22:36:15.185Z,66.51
2022-08-05T22:38:48.215Z,66.48
2022-08-05T22:41:26.307Z,66.43
2022-08-05T22:44:08.598Z,66.42
2022-08-05T22:46:39.468Z,66.34
2022-08-05T22:49:23.008Z,66.34
2022-08-05T22:52:06.568Z,66.35
2022-08-05T22:54:40.667Z,65.99
2022-08-05T22:57:24.966Z,65.80
2022-08-05T22:59:54.537Z,65.91
2022-08-05T23:02:29.421Z,65.62
2022-08-05T23:05:01.978Z,65.62
2022-08-05T23:07:35.742Z,65.48
2022-08-05T23:10:20.274Z,65.54
2022-08-05T23:12:51.730Z,65.25
2022-08-05T23:15:29.829Z,65.23
2022-08-05T23:18:06.050Z,65.04
2022-08-05T23:20:40.501Z,65.19
2022-08-05T23:23:11.457Z,64.90
2022-08-05T23:25:52.144Z,64.90
2022-08-05T23:28:28.880Z,64.73
2022-08-05T23:31:16.177Z,64.87
2022-08-05T23:34:03.326Z,64.85
2022-08-05T23:36:39.912Z,64.87
2022-08-05T23:39:17.202Z,64.91
2022-08-05T23:41:52.685Z,64.94
2022-08-05T23:44:31.094Z,64.69
2022-08-05T23:47:02.521Z,64.89
2022-08-05T23:49:45.556Z,65.09
2022-08-05T23:52:32.306Z,64.97
2022-08-05T23:55:07.207Z,64.97
2022-08-05T23:57:37.260Z,65.09
